sensor_id;sensor_type;location;lat;lon;timestamp;temperature;humidity
21635;DHT22;10979;48.306;9.830;2022-12-08T00:00:50;0.90;99.90
21635;DHT22;10979;48.306;9.830;2022-12-08T00:03:15;0.90;99.90
21635;DHT22;10979;48.306;9.830;2022-12-08T00:05:48;0.90;99.90
21635;DHT22;10979;48.306;9.830;2022-12-08T00:08:32;0.90;99.90
21635;DHT22;10979;48.306;9.830;2022-12-08T00:11:18;0.90;99.90
21635;DHT22;10979;48.306;9.830;2022-12-08T00:13:45;0.90;99.90
21635;DHT22;10979;48.306;9.830;2022-12-08T00:16:11;0.90;99.90
21635;DHT22;10979;48.306;9.830;2022-12-08T00:18:37;0.90;99.90
21635;DHT22;10979;48.306;9.830;2022-12-08T00:21:03;0.90;99.90
21635;DHT22;10979;48.306;9.830;2022-12-08T00:23:29;0.80;99.90
21635;DHT22;10979;48.306;9.830;2022-12-08T00:25:54;0.70;99.90
21635;DHT22;10979;48.306;9.830;2022-12-08T00:28:20;0.70;99.90
21635;DHT22;10979;48.306;9.830;2022-12-08T00:30:45;0.70;99.90
21635;DHT22;10979;48.306;9.830;2022-12-08T00:33:11;0.60;99.90
21635;DHT22;10979;48.306;9.830;2022-12-08T00:35:37;0.50;99.90
21635;DHT22;10979;48.306;9.830;2022-12-08T00:38:02;0.60;99.90
21635;DHT22;10979;48.306;9.830;2022-12-08T00:40:28;0.50;99.90
21635;DHT22;10979;48.306;9.830;2022-12-08T00:42:54;0.50;99.90
21635;DHT22;10979;48.306;9.830;2022-12-08T00:45:19;0.40;99.90
21635;DHT22;10979;48.306;9.830;2022-12-08T00:47:45;0.30;99.90
21635;DHT22;10979;48.306;9.830;2022-12-08T00:50:10;0.40;99.90
21635;DHT22;10979;48.306;9.830;2022-12-08T00:52:36;0.30;99.90
21635;DHT22;10979;48.306;9.830;2022-12-08T00:55:03;0.20;99.90
21635;DHT22;10979;48.306;9.830;2022-12-08T00:57:29;0.20;99.90
21635;DHT22;10979;48.306;9.830;2022-12-08T00:59:54;0.20;99.90
21635;DHT22;10979;48.306;9.830;2022-12-08T01:02:20;0.10;99.90
21635;DHT22;10979;48.306;9.830;2022-12-08T01:04:45;0.00;99.90
21635;DHT22;10979;48.306;9.830;2022-12-08T01:07:11;-0.10;99.90
21635;DHT22;10979;48.306;9.830;2022-12-08T01:09:37;0.00;99.90
21635;DHT22;10979;48.306;9.830;2022-12-08T01:12:03;0.00;99.90
21635;DHT22;10979;48.306;9.830;2022-12-08T01:14:28;-0.10;99.90
21635;DHT22;10979;48.306;9.830;2022-12-08T01:16:54;-0.10;99.90
21635;DHT22;10979;48.306;9.830;2022-12-08T01:19:20;-0.10;99.90
21635;DHT22;10979;48.306;9.830;2022-12-08T01:21:45;-0.10;99.90
21635;DHT22;10979;48.306;9.830;2022-12-08T01:24:17;-0.10;99.90
21635;DHT22;10979;48.306;9.830;2022-12-08T01:26:43;-0.10;99.90
21635;DHT22;10979;48.306;9.830;2022-12-08T01:29:09;-0.20;99.90
21635;DHT22;10979;48.306;9.830;2022-12-08T01:31:35;-0.20;99.90
21635;DHT22;10979;48.306;9.830;2022-12-08T01:34:01;-0.30;99.90
21635;DHT22;10979;48.306;9.830;2022-12-08T01:36:29;-0.20;99.90
21635;DHT22;10979;48.306;9.830;2022-12-08T01:39:00;-0.20;99.90
21635;DHT22;10979;48.306;9.830;2022-12-08T01:41:29;-0.20;99.90
21635;DHT22;10979;48.306;9.830;2022-12-08T01:46:33;-0.20;99.90
21635;DHT22;10979;48.306;9.830;2022-12-08T01:49:16;-0.10;99.90
21635;DHT22;10979;48.306;9.830;2022-12-08T01:54:13;-0.40;99.90
21635;DHT22;10979;48.306;9.830;2022-12-08T01:56:45;-0.50;99.90
21635;DHT22;10979;48.306;9.830;2022-12-08T01:59:14;-0.40;99.90
21635;DHT22;10979;48.306;9.830;2022-12-08T02:01:39;-0.40;99.90
21635;DHT22;10979;48.306;9.830;2022-12-08T02:04:05;-0.50;99.90
21635;DHT22;10979;48.306;9.830;2022-12-08T02:06:35;-0.60;99.90
21635;DHT22;10979;48.306;9.830;2022-12-08T02:09:03;-0.70;99.90
21635;DHT22;10979;48.306;9.830;2022-12-08T02:11:29;-1.00;99.90
21635;DHT22;10979;48.306;9.830;2022-12-08T02:13:56;-1.10;99.90
21635;DHT22;10979;48.306;9.830;2022-12-08T02:16:59;-1.00;99.90
21635;DHT22;10979;48.306;9.830;2022-12-08T02:20:13;-1.20;99.90
21635;DHT22;10979;48.306;9.830;2022-12-08T02:23:02;-1.40;99.90
21635;DHT22;10979;48.306;9.830;2022-12-08T02:25:41;-1.50;99.90
21635;DHT22;10979;48.306;9.830;2022-12-08T02:39:54;-1.90;99.90
21635;DHT22;10979;48.306;9.830;2022-12-08T02:45:24;-1.80;99.90
21635;DHT22;10979;48.306;9.830;2022-12-08T02:47:51;-1.90;99.90
21635;DHT22;10979;48.306;9.830;2022-12-08T02:50:17;-1.90;99.90
21635;DHT22;10979;48.306;9.830;2022-12-08T02:52:45;-2.00;99.90
21635;DHT22;10979;48.306;9.830;2022-12-08T02:55:25;-1.90;99.90
21635;DHT22;10979;48.306;9.830;2022-12-08T02:58:28;-1.90;99.90
21635;DHT22;10979;48.306;9.830;2022-12-08T03:04:13;-2.10;99.90
21635;DHT22;10979;48.306;9.830;2022-12-08T03:07:04;-2.10;99.90
21635;DHT22;10979;48.306;9.830;2022-12-08T03:14:55;-2.40;99.90
21635;DHT22;10979;48.306;9.830;2022-12-08T03:17:24;-2.30;99.90
21635;DHT22;10979;48.306;9.830;2022-12-08T03:19:51;-2.30;99.90
21635;DHT22;10979;48.306;9.830;2022-12-08T03:22:21;-2.50;99.90
21635;DHT22;10979;48.306;9.830;2022-12-08T03:24:48;-2.60;99.90
21635;DHT22;10979;48.306;9.830;2022-12-08T03:27:16;-2.60;99.90
21635;DHT22;10979;48.306;9.830;2022-12-08T03:29:45;-2.40;99.90
21635;DHT22;10979;48.306;9.830;2022-12-08T03:32:27;-2.50;99.90
21635;DHT22;10979;48.306;9.830;2022-12-08T03:34:55;-2.60;99.90
21635;DHT22;10979;48.306;9.830;2022-12-08T03:37:21;-2.50;99.90
21635;DHT22;10979;48.306;9.830;2022-12-08T03:39:47;-2.60;99.90
21635;DHT22;10979;48.306;9.830;2022-12-08T03:42:13;-2.70;99.90
21635;DHT22;10979;48.306;9.830;2022-12-08T03:44:38;-2.80;99.90
21635;DHT22;10979;48.306;9.830;2022-12-08T03:47:04;-2.90;99.90
21635;DHT22;10979;48.306;9.830;2022-12-08T03:49:30;-3.10;99.90
21635;DHT22;10979;48.306;9.830;2022-12-08T03:51:55;-2.90;99.90
21635;DHT22;10979;48.306;9.830;2022-12-08T03:54:21;-2.60;99.90
21635;DHT22;10979;48.306;9.830;2022-12-08T03:56:46;-2.70;99.90
21635;DHT22;10979;48.306;9.830;2022-12-08T03:59:12;-2.70;99.90
21635;DHT22;10979;48.306;9.830;2022-12-08T04:01:37;-2.80;99.90
21635;DHT22;10979;48.306;9.830;2022-12-08T04:04:03;-3.10;99.90
21635;DHT22;10979;48.306;9.830;2022-12-08T04:06:28;-3.20;99.90
21635;DHT22;10979;48.306;9.830;2022-12-08T04:08:54;-3.10;99.90
21635;DHT22;10979;48.306;9.830;2022-12-08T04:11:20;-2.90;99.90
21635;DHT22;10979;48.306;9.830;2022-12-08T04:13:46;-2.80;99.90
21635;DHT22;10979;48.306;9.830;2022-12-08T04:16:17;-2.90;99.90
21635;DHT22;10979;48.306;9.830;2022-12-08T04:18:44;-2.90;99.90
21635;DHT22;10979;48.306;9.830;2022-12-08T04:21:10;-3.00;99.90
21635;DHT22;10979;48.306;9.830;2022-12-08T04:23:35;-3.00;99.90
21635;DHT22;10979;48.306;9.830;2022-12-08T04:26:01;-2.90;99.90
21635;DHT22;10979;48.306;9.830;2022-12-08T04:28:27;-3.00;99.90
21635;DHT22;10979;48.306;9.830;2022-12-08T04:30:54;-2.90;99.90
21635;DHT22;10979;48.306;9.830;2022-12-08T04:33:19;-3.20;99.90
21635;DHT22;10979;48.306;9.830;2022-12-08T04:35:45;-3.20;99.90
21635;DHT22;10979;48.306;9.830;2022-12-08T04:38:10;-3.10;99.90
21635;DHT22;10979;48.306;9.830;2022-12-08T04:40:36;-3.10;99.90
21635;DHT22;10979;48.306;9.830;2022-12-08T04:43:02;-3.30;99.90
21635;DHT22;10979;48.306;9.830;2022-12-08T04:45:27;-3.10;99.90
21635;DHT22;10979;48.306;9.830;2022-12-08T04:47:53;-3.20;99.90
21635;DHT22;10979;48.306;9.830;2022-12-08T04:50:18;-3.40;99.90
21635;DHT22;10979;48.306;9.830;2022-12-08T04:52:44;-3.30;99.90
21635;DHT22;10979;48.306;9.830;2022-12-08T04:55:09;-3.30;99.90
21635;DHT22;10979;48.306;9.830;2022-12-08T04:57:35;-3.40;99.90
21635;DHT22;10979;48.306;9.830;2022-12-08T05:00:01;-3.40;99.90
21635;DHT22;10979;48.306;9.830;2022-12-08T05:02:26;-3.30;99.90
21635;DHT22;10979;48.306;9.830;2022-12-08T05:04:52;-3.50;99.90
21635;DHT22;10979;48.306;9.830;2022-12-08T05:07:17;-3.50;99.90
21635;DHT22;10979;48.306;9.830;2022-12-08T05:09:43;-3.60;99.90
21635;DHT22;10979;48.306;9.830;2022-12-08T05:12:09;-3.50;99.90
21635;DHT22;10979;48.306;9.830;2022-12-08T05:14:34;-3.70;99.90
21635;DHT22;10979;48.306;9.830;2022-12-08T05:17:00;-3.70;99.90
21635;DHT22;10979;48.306;9.830;2022-12-08T05:19:25;-3.80;99.90
21635;DHT22;10979;48.306;9.830;2022-12-08T05:21:51;-3.70;99.90
21635;DHT22;10979;48.306;9.830;2022-12-08T05:24:16;-3.90;99.90
21635;DHT22;10979;48.306;9.830;2022-12-08T05:26:42;-3.70;99.90
21635;DHT22;10979;48.306;9.830;2022-12-08T05:29:07;-3.80;99.90
21635;DHT22;10979;48.306;9.830;2022-12-08T05:31:33;-4.00;99.90
21635;DHT22;10979;48.306;9.830;2022-12-08T05:33:58;-3.90;99.90
21635;DHT22;10979;48.306;9.830;2022-12-08T05:36:24;-3.60;99.90
21635;DHT22;10979;48.306;9.830;2022-12-08T05:38:50;-3.50;99.90
21635;DHT22;10979;48.306;9.830;2022-12-08T05:41:17;-3.50;99.90
21635;DHT22;10979;48.306;9.830;2022-12-08T05:43:43;-3.50;99.90
21635;DHT22;10979;48.306;9.830;2022-12-08T05:46:09;-3.10;99.90
21635;DHT22;10979;48.306;9.830;2022-12-08T05:48:34;-3.50;99.90
21635;DHT22;10979;48.306;9.830;2022-12-08T05:51:00;-3.60;99.90
21635;DHT22;10979;48.306;9.830;2022-12-08T05:53:26;-3.70;99.90
21635;DHT22;10979;48.306;9.830;2022-12-08T05:55:52;-3.70;99.90
21635;DHT22;10979;48.306;9.830;2022-12-08T05:58:19;-3.60;99.90
21635;DHT22;10979;48.306;9.830;2022-12-08T06:00:46;-3.40;99.90
21635;DHT22;10979;48.306;9.830;2022-12-08T06:03:13;-3.40;99.90
21635;DHT22;10979;48.306;9.830;2022-12-08T06:05:41;-3.50;99.90
21635;DHT22;10979;48.306;9.830;2022-12-08T06:08:07;-3.30;99.90
21635;DHT22;10979;48.306;9.830;2022-12-08T06:10:33;-3.30;99.90
21635;DHT22;10979;48.306;9.830;2022-12-08T06:12:58;-3.30;99.90
21635;DHT22;10979;48.306;9.830;2022-12-08T06:15:24;-3.30;99.90
21635;DHT22;10979;48.306;9.830;2022-12-08T06:17:50;-3.50;99.90
21635;DHT22;10979;48.306;9.830;2022-12-08T06:20:16;-3.50;99.90
21635;DHT22;10979;48.306;9.830;2022-12-08T06:22:42;-3.30;99.90
21635;DHT22;10979;48.306;9.830;2022-12-08T06:25:07;-3.40;99.90
21635;DHT22;10979;48.306;9.830;2022-12-08T06:27:33;-3.40;99.90
21635;DHT22;10979;48.306;9.830;2022-12-08T06:29:59;-3.50;99.90
21635;DHT22;10979;48.306;9.830;2022-12-08T06:32:24;-3.70;99.90
21635;DHT22;10979;48.306;9.830;2022-12-08T06:34:51;-4.00;99.90
21635;DHT22;10979;48.306;9.830;2022-12-08T06:37:16;-4.10;99.90
21635;DHT22;10979;48.306;9.830;2022-12-08T06:39:42;-3.90;99.90
21635;DHT22;10979;48.306;9.830;2022-12-08T06:42:07;-3.80;99.90
21635;DHT22;10979;48.306;9.830;2022-12-08T06:44:51;-3.90;99.90
21635;DHT22;10979;48.306;9.830;2022-12-08T06:47:17;-4.00;99.90
21635;DHT22;10979;48.306;9.830;2022-12-08T06:49:44;-4.10;99.90
21635;DHT22;10979;48.306;9.830;2022-12-08T06:52:10;-4.20;99.90
21635;DHT22;10979;48.306;9.830;2022-12-08T06:54:35;-4.20;99.90
21635;DHT22;10979;48.306;9.830;2022-12-08T06:57:01;-4.20;99.90
21635;DHT22;10979;48.306;9.830;2022-12-08T06:59:26;-3.90;99.90
21635;DHT22;10979;48.306;9.830;2022-12-08T07:01:52;-4.00;99.90
21635;DHT22;10979;48.306;9.830;2022-12-08T07:04:17;-4.10;99.90
21635;DHT22;10979;48.306;9.830;2022-12-08T07:06:43;-4.10;99.90
21635;DHT22;10979;48.306;9.830;2022-12-08T07:09:08;-4.20;99.90
21635;DHT22;10979;48.306;9.830;2022-12-08T07:11:34;-4.10;99.90
21635;DHT22;10979;48.306;9.830;2022-12-08T07:14:00;-4.10;99.90
21635;DHT22;10979;48.306;9.830;2022-12-08T07:16:25;-4.20;99.90
21635;DHT22;10979;48.306;9.830;2022-12-08T07:18:51;-4.30;99.90
21635;DHT22;10979;48.306;9.830;2022-12-08T07:21:17;-4.20;99.90
21635;DHT22;10979;48.306;9.830;2022-12-08T07:23:46;-4.10;99.90
21635;DHT22;10979;48.306;9.830;2022-12-08T07:26:12;-4.00;99.90
21635;DHT22;10979;48.306;9.830;2022-12-08T07:28:39;-4.20;99.90
21635;DHT22;10979;48.306;9.830;2022-12-08T07:31:06;-4.20;99.90
21635;DHT22;10979;48.306;9.830;2022-12-08T07:33:32;-4.10;99.90
21635;DHT22;10979;48.306;9.830;2022-12-08T07:36:00;-4.10;99.90
21635;DHT22;10979;48.306;9.830;2022-12-08T07:38:27;-4.10;99.90
21635;DHT22;10979;48.306;9.830;2022-12-08T07:40:53;-4.10;99.90
21635;DHT22;10979;48.306;9.830;2022-12-08T07:43:20;-4.00;99.90
21635;DHT22;10979;48.306;9.830;2022-12-08T07:45:45;-3.90;99.90
21635;DHT22;10979;48.306;9.830;2022-12-08T07:48:11;-3.90;99.90
21635;DHT22;10979;48.306;9.830;2022-12-08T07:50:37;-3.80;99.90
21635;DHT22;10979;48.306;9.830;2022-12-08T07:53:03;-3.70;99.90
21635;DHT22;10979;48.306;9.830;2022-12-08T07:55:29;-3.70;99.90
21635;DHT22;10979;48.306;9.830;2022-12-08T07:57:55;-3.60;99.90
21635;DHT22;10979;48.306;9.830;2022-12-08T08:00:20;-3.60;99.90
21635;DHT22;10979;48.306;9.830;2022-12-08T08:02:46;-3.50;99.90
21635;DHT22;10979;48.306;9.830;2022-12-08T08:05:12;-3.40;99.90
21635;DHT22;10979;48.306;9.830;2022-12-08T08:07:39;-3.30;99.90
21635;DHT22;10979;48.306;9.830;2022-12-08T08:10:08;-3.10;99.90
21635;DHT22;10979;48.306;9.830;2022-12-08T08:12:35;-3.10;99.90
21635;DHT22;10979;48.306;9.830;2022-12-08T08:15:04;-3.00;99.90
21635;DHT22;10979;48.306;9.830;2022-12-08T08:17:30;-2.80;99.90
21635;DHT22;10979;48.306;9.830;2022-12-08T08:19:55;-2.70;99.90
21635;DHT22;10979;48.306;9.830;2022-12-08T08:22:21;-2.70;99.90
21635;DHT22;10979;48.306;9.830;2022-12-08T08:24:47;-2.60;99.90
21635;DHT22;10979;48.306;9.830;2022-12-08T08:27:12;-2.50;99.90
21635;DHT22;10979;48.306;9.830;2022-12-08T08:29:38;-2.40;99.90
21635;DHT22;10979;48.306;9.830;2022-12-08T08:32:04;-2.30;99.90
21635;DHT22;10979;48.306;9.830;2022-12-08T08:34:29;-2.20;99.90
21635;DHT22;10979;48.306;9.830;2022-12-08T08:36:55;-2.10;99.90
21635;DHT22;10979;48.306;9.830;2022-12-08T08:39:20;-2.00;99.90
21635;DHT22;10979;48.306;9.830;2022-12-08T08:41:46;-1.90;99.90
21635;DHT22;10979;48.306;9.830;2022-12-08T08:44:12;-1.90;99.90
21635;DHT22;10979;48.306;9.830;2022-12-08T08:46:39;-1.70;99.90
21635;DHT22;10979;48.306;9.830;2022-12-08T08:49:04;-1.70;99.90
21635;DHT22;10979;48.306;9.830;2022-12-08T08:51:30;-1.60;99.90
21635;DHT22;10979;48.306;9.830;2022-12-08T08:53:56;-1.50;99.90
21635;DHT22;10979;48.306;9.830;2022-12-08T08:56:21;-1.50;99.90
21635;DHT22;10979;48.306;9.830;2022-12-08T08:58:52;-1.40;99.90
21635;DHT22;10979;48.306;9.830;2022-12-08T09:01:21;-1.30;99.90
21635;DHT22;10979;48.306;9.830;2022-12-08T09:03:47;-1.20;99.90
21635;DHT22;10979;48.306;9.830;2022-12-08T09:06:14;-1.30;99.90
21635;DHT22;10979;48.306;9.830;2022-12-08T09:08:40;-1.10;99.90
21635;DHT22;10979;48.306;9.830;2022-12-08T09:11:07;-1.10;99.90
21635;DHT22;10979;48.306;9.830;2022-12-08T09:13:32;-1.20;99.90
21635;DHT22;10979;48.306;9.830;2022-12-08T09:16:02;-1.00;99.90
21635;DHT22;10979;48.306;9.830;2022-12-08T09:18:29;-1.00;99.90
21635;DHT22;10979;48.306;9.830;2022-12-08T09:20:55;-0.80;99.90
21635;DHT22;10979;48.306;9.830;2022-12-08T09:23:21;-0.90;99.90
21635;DHT22;10979;48.306;9.830;2022-12-08T09:25:46;-1.00;99.90
21635;DHT22;10979;48.306;9.830;2022-12-08T09:28:13;-0.70;99.90
21635;DHT22;10979;48.306;9.830;2022-12-08T09:30:39;-0.70;99.90
21635;DHT22;10979;48.306;9.830;2022-12-08T09:33:05;-0.60;99.90
21635;DHT22;10979;48.306;9.830;2022-12-08T09:35:30;-0.40;99.90
21635;DHT22;10979;48.306;9.830;2022-12-08T09:37:56;-0.50;99.90
21635;DHT22;10979;48.306;9.830;2022-12-08T09:40:22;-0.40;99.90
21635;DHT22;10979;48.306;9.830;2022-12-08T09:43:09;-0.30;99.90
21635;DHT22;10979;48.306;9.830;2022-12-08T09:45:41;-0.30;99.90
21635;DHT22;10979;48.306;9.830;2022-12-08T09:48:16;-0.20;99.90
21635;DHT22;10979;48.306;9.830;2022-12-08T09:50:49;-0.20;99.90
21635;DHT22;10979;48.306;9.830;2022-12-08T09:53:29;-0.10;99.90
21635;DHT22;10979;48.306;9.830;2022-12-08T09:56:14;-0.10;99.90
21635;DHT22;10979;48.306;9.830;2022-12-08T10:01:17;-0.20;99.90
21635;DHT22;10979;48.306;9.830;2022-12-08T10:03:43;0.00;99.90
21635;DHT22;10979;48.306;9.830;2022-12-08T10:06:47;0.10;99.90
21635;DHT22;10979;48.306;9.830;2022-12-08T10:09:22;0.10;99.90
21635;DHT22;10979;48.306;9.830;2022-12-08T10:12:13;0.20;99.90
21635;DHT22;10979;48.306;9.830;2022-12-08T10:17:28;0.10;99.90
21635;DHT22;10979;48.306;9.830;2022-12-08T10:20:04;0.10;99.90
21635;DHT22;10979;48.306;9.830;2022-12-08T10:22:33;0.10;99.90
21635;DHT22;10979;48.306;9.830;2022-12-08T10:25:10;0.20;99.90
21635;DHT22;10979;48.306;9.830;2022-12-08T10:27:37;0.40;99.90
21635;DHT22;10979;48.306;9.830;2022-12-08T10:30:15;0.30;99.90
21635;DHT22;10979;48.306;9.830;2022-12-08T10:32:44;0.40;99.90
21635;DHT22;10979;48.306;9.830;2022-12-08T10:35:12;0.30;99.90
21635;DHT22;10979;48.306;9.830;2022-12-08T10:37:39;0.10;99.90
21635;DHT22;10979;48.306;9.830;2022-12-08T10:40:11;0.10;99.90
21635;DHT22;10979;48.306;9.830;2022-12-08T10:42:40;0.20;99.90
21635;DHT22;10979;48.306;9.830;2022-12-08T10:47:40;0.30;99.90
21635;DHT22;10979;48.306;9.830;2022-12-08T10:52:45;0.30;99.90
21635;DHT22;10979;48.306;9.830;2022-12-08T10:55:18;0.30;99.90
21635;DHT22;10979;48.306;9.830;2022-12-08T10:57:45;0.30;99.90
21635;DHT22;10979;48.306;9.830;2022-12-08T11:00:12;0.30;99.90
21635;DHT22;10979;48.306;9.830;2022-12-08T11:02:54;0.40;99.90
21635;DHT22;10979;48.306;9.830;2022-12-08T11:05:21;0.50;99.90
21635;DHT22;10979;48.306;9.830;2022-12-08T11:07:52;0.70;99.90
21635;DHT22;10979;48.306;9.830;2022-12-08T11:10:26;0.50;99.90
21635;DHT22;10979;48.306;9.830;2022-12-08T11:12:53;0.60;99.90
21635;DHT22;10979;48.306;9.830;2022-12-08T11:15:19;0.50;99.90
21635;DHT22;10979;48.306;9.830;2022-12-08T11:17:59;0.60;99.90
21635;DHT22;10979;48.306;9.830;2022-12-08T11:20:27;0.60;99.90
21635;DHT22;10979;48.306;9.830;2022-12-08T11:23:02;0.50;99.90
21635;DHT22;10979;48.306;9.830;2022-12-08T11:25:28;0.70;99.90
21635;DHT22;10979;48.306;9.830;2022-12-08T11:27:58;1.00;99.90
21635;DHT22;10979;48.306;9.830;2022-12-08T11:30:28;0.70;99.90
21635;DHT22;10979;48.306;9.830;2022-12-08T11:35:43;0.80;99.90
21635;DHT22;10979;48.306;9.830;2022-12-08T11:38:15;0.90;99.90
21635;DHT22;10979;48.306;9.830;2022-12-08T11:40:43;1.00;99.90
21635;DHT22;10979;48.306;9.830;2022-12-08T11:43:20;1.00;99.90
21635;DHT22;10979;48.306;9.830;2022-12-08T11:45:54;1.10;99.90
21635;DHT22;10979;48.306;9.830;2022-12-08T11:51:12;1.20;99.90
21635;DHT22;10979;48.306;9.830;2022-12-08T11:56:35;1.10;99.90
21635;DHT22;10979;48.306;9.830;2022-12-08T11:59:23;1.20;99.90
21635;DHT22;10979;48.306;9.830;2022-12-08T12:01:50;1.10;99.90
21635;DHT22;10979;48.306;9.830;2022-12-08T12:10:30;1.30;99.90
21635;DHT22;10979;48.306;9.830;2022-12-08T12:13:16;1.50;99.90
21635;DHT22;10979;48.306;9.830;2022-12-08T12:18:38;1.70;99.90
21635;DHT22;10979;48.306;9.830;2022-12-08T12:21:30;1.70;99.90
21635;DHT22;10979;48.306;9.830;2022-12-08T12:23:58;1.70;99.90
21635;DHT22;10979;48.306;9.830;2022-12-08T12:26:27;1.60;99.90
21635;DHT22;10979;48.306;9.830;2022-12-08T12:28:54;1.70;99.90
21635;DHT22;10979;48.306;9.830;2022-12-08T12:31:36;1.70;99.90
21635;DHT22;10979;48.306;9.830;2022-12-08T12:34:19;1.80;99.90
21635;DHT22;10979;48.306;9.830;2022-12-08T12:36:52;1.80;99.90
21635;DHT22;10979;48.306;9.830;2022-12-08T12:39:31;1.90;99.90
21635;DHT22;10979;48.306;9.830;2022-12-08T12:42:03;1.80;99.90
21635;DHT22;10979;48.306;9.830;2022-12-08T12:46:58;2.00;99.90
21635;DHT22;10979;48.306;9.830;2022-12-08T13:04:59;1.70;99.90
21635;DHT22;10979;48.306;9.830;2022-12-08T13:07:44;1.80;99.90
21635;DHT22;10979;48.306;9.830;2022-12-08T13:10:29;1.90;99.90
21635;DHT22;10979;48.306;9.830;2022-12-08T13:13:06;1.90;99.90
21635;DHT22;10979;48.306;9.830;2022-12-08T13:15:40;1.90;99.90
21635;DHT22;10979;48.306;9.830;2022-12-08T13:18:24;1.70;99.90
21635;DHT22;10979;48.306;9.830;2022-12-08T13:26:20;1.70;99.90
21635;DHT22;10979;48.306;9.830;2022-12-08T13:29:04;1.70;99.90
21635;DHT22;10979;48.306;9.830;2022-12-08T13:31:41;1.80;99.90
21635;DHT22;10979;48.306;9.830;2022-12-08T13:34:27;1.90;99.90
21635;DHT22;10979;48.306;9.830;2022-12-08T13:39:50;1.80;99.90
21635;DHT22;10979;48.306;9.830;2022-12-08T13:45:13;1.80;99.90
21635;DHT22;10979;48.306;9.830;2022-12-08T13:48:03;1.80;99.90
21635;DHT22;10979;48.306;9.830;2022-12-08T13:50:57;1.90;99.90
21635;DHT22;10979;48.306;9.830;2022-12-08T13:53:34;1.90;99.90
21635;DHT22;10979;48.306;9.830;2022-12-08T13:56:03;1.80;99.90
21635;DHT22;10979;48.306;9.830;2022-12-08T13:58:32;1.80;99.90
21635;DHT22;10979;48.306;9.830;2022-12-08T14:01:20;1.80;99.90
21635;DHT22;10979;48.306;9.830;2022-12-08T14:03:55;1.70;99.90
21635;DHT22;10979;48.306;9.830;2022-12-08T14:06:32;1.70;99.90
21635;DHT22;10979;48.306;9.830;2022-12-08T14:09:01;1.60;99.90
21635;DHT22;10979;48.306;9.830;2022-12-08T14:11:36;1.70;99.90
21635;DHT22;10979;48.306;9.830;2022-12-08T14:14:16;1.60;99.90
21635;DHT22;10979;48.306;9.830;2022-12-08T14:16:51;1.50;99.90
21635;DHT22;10979;48.306;9.830;2022-12-08T14:19:20;1.50;99.90
21635;DHT22;10979;48.306;9.830;2022-12-08T14:21:52;1.40;99.90
21635;DHT22;10979;48.306;9.830;2022-12-08T14:24:18;1.50;99.90
21635;DHT22;10979;48.306;9.830;2022-12-08T14:26:49;1.50;99.90
21635;DHT22;10979;48.306;9.830;2022-12-08T14:29:36;1.50;99.90
21635;DHT22;10979;48.306;9.830;2022-12-08T14:32:04;1.40;99.90
21635;DHT22;10979;48.306;9.830;2022-12-08T14:34:34;1.40;99.90
21635;DHT22;10979;48.306;9.830;2022-12-08T14:37:07;1.50;99.90
21635;DHT22;10979;48.306;9.830;2022-12-08T14:39:34;1.40;99.90
21635;DHT22;10979;48.306;9.830;2022-12-08T14:42:00;1.20;99.90
21635;DHT22;10979;48.306;9.830;2022-12-08T14:44:29;1.20;99.90
21635;DHT22;10979;48.306;9.830;2022-12-08T14:47:04;1.20;99.90
21635;DHT22;10979;48.306;9.830;2022-12-08T14:49:35;1.20;99.90
21635;DHT22;10979;48.306;9.830;2022-12-08T14:52:01;1.30;99.90
21635;DHT22;10979;48.306;9.830;2022-12-08T14:54:29;1.20;99.90
21635;DHT22;10979;48.306;9.830;2022-12-08T14:56:55;1.20;99.90
21635;DHT22;10979;48.306;9.830;2022-12-08T15:07:22;1.00;99.90
21635;DHT22;10979;48.306;9.830;2022-12-08T15:10:19;1.00;99.90
21635;DHT22;10979;48.306;9.830;2022-12-08T15:15:31;1.00;99.90
21635;DHT22;10979;48.306;9.830;2022-12-08T15:18:16;0.90;99.90
21635;DHT22;10979;48.306;9.830;2022-12-08T15:20:49;0.80;99.90
21635;DHT22;10979;48.306;9.830;2022-12-08T15:23:25;0.80;99.90
21635;DHT22;10979;48.306;9.830;2022-12-08T15:25:52;0.70;99.90
21635;DHT22;10979;48.306;9.830;2022-12-08T15:28:19;0.80;99.90
21635;DHT22;10979;48.306;9.830;2022-12-08T15:30:45;0.80;99.90
21635;DHT22;10979;48.306;9.830;2022-12-08T15:33:11;0.70;99.90
21635;DHT22;10979;48.306;9.830;2022-12-08T15:35:37;0.70;99.90
21635;DHT22;10979;48.306;9.830;2022-12-08T15:38:04;0.60;99.90
21635;DHT22;10979;48.306;9.830;2022-12-08T15:40:30;0.60;99.90
21635;DHT22;10979;48.306;9.830;2022-12-08T15:42:55;0.60;99.90
21635;DHT22;10979;48.306;9.830;2022-12-08T15:45:27;0.60;99.90
21635;DHT22;10979;48.306;9.830;2022-12-08T15:47:55;0.60;99.90
21635;DHT22;10979;48.306;9.830;2022-12-08T15:50:22;0.60;99.90
21635;DHT22;10979;48.306;9.830;2022-12-08T15:52:48;0.70;99.90
21635;DHT22;10979;48.306;9.830;2022-12-08T15:55:19;0.60;99.90
21635;DHT22;10979;48.306;9.830;2022-12-08T15:57:47;0.70;99.90
21635;DHT22;10979;48.306;9.830;2022-12-08T16:00:31;0.80;99.90
21635;DHT22;10979;48.306;9.830;2022-12-08T16:02:59;0.70;99.90
21635;DHT22;10979;48.306;9.830;2022-12-08T16:05:26;0.70;99.90
21635;DHT22;10979;48.306;9.830;2022-12-08T16:07:53;0.70;99.90
21635;DHT22;10979;48.306;9.830;2022-12-08T16:10:26;0.60;99.90
21635;DHT22;10979;48.306;9.830;2022-12-08T16:12:52;0.60;99.90
21635;DHT22;10979;48.306;9.830;2022-12-08T16:15:41;0.60;99.90
21635;DHT22;10979;48.306;9.830;2022-12-08T16:18:14;0.60;99.90
21635;DHT22;10979;48.306;9.830;2022-12-08T16:20:39;0.60;99.90
21635;DHT22;10979;48.306;9.830;2022-12-08T16:23:05;0.50;99.90
21635;DHT22;10979;48.306;9.830;2022-12-08T16:25:30;0.50;99.90
21635;DHT22;10979;48.306;9.830;2022-12-08T16:27:56;0.50;99.90
21635;DHT22;10979;48.306;9.830;2022-12-08T16:30:22;0.50;99.90
21635;DHT22;10979;48.306;9.830;2022-12-08T16:32:47;0.60;99.90
21635;DHT22;10979;48.306;9.830;2022-12-08T16:35:13;0.50;99.90
21635;DHT22;10979;48.306;9.830;2022-12-08T16:37:39;0.50;99.90
21635;DHT22;10979;48.306;9.830;2022-12-08T16:40:06;0.40;99.90
21635;DHT22;10979;48.306;9.830;2022-12-08T16:42:33;0.30;99.90
21635;DHT22;10979;48.306;9.830;2022-12-08T16:47:34;0.20;99.90
21635;DHT22;10979;48.306;9.830;2022-12-08T16:50:04;0.00;99.90
21635;DHT22;10979;48.306;9.830;2022-12-08T16:52:29;-0.10;99.90
21635;DHT22;10979;48.306;9.830;2022-12-08T16:54:55;-0.10;99.90
21635;DHT22;10979;48.306;9.830;2022-12-08T16:57:21;-0.30;99.90
21635;DHT22;10979;48.306;9.830;2022-12-08T16:59:46;-0.40;99.90
21635;DHT22;10979;48.306;9.830;2022-12-08T17:02:12;-0.40;99.90
21635;DHT22;10979;48.306;9.830;2022-12-08T17:04:37;-0.30;99.90
21635;DHT22;10979;48.306;9.830;2022-12-08T17:07:03;-0.70;99.90
21635;DHT22;10979;48.306;9.830;2022-12-08T17:09:30;-0.80;99.90
21635;DHT22;10979;48.306;9.830;2022-12-08T17:11:55;-1.10;99.90
21635;DHT22;10979;48.306;9.830;2022-12-08T17:14:21;-1.10;99.90
21635;DHT22;10979;48.306;9.830;2022-12-08T17:16:46;-1.10;99.90
21635;DHT22;10979;48.306;9.830;2022-12-08T17:19:12;-1.20;99.90
21635;DHT22;10979;48.306;9.830;2022-12-08T17:21:39;-1.20;99.90
21635;DHT22;10979;48.306;9.830;2022-12-08T17:24:05;-1.10;99.90
21635;DHT22;10979;48.306;9.830;2022-12-08T17:26:31;-1.20;99.90
21635;DHT22;10979;48.306;9.830;2022-12-08T17:28:57;-1.20;99.90